sensor_id;sensor_type;location;lat;lon;timestamp;temperature;humidity
52941;DHT22;62001;53.366;6.636;2023-05-02T00:00:49;9.60;99.90
52941;DHT22;62001;53.366;6.636;2023-05-02T00:03:15;9.60;99.90
52941;DHT22;62001;53.366;6.636;2023-05-02T00:05:42;9.60;99.90
52941;DHT22;62001;53.366;6.636;2023-05-02T00:08:08;9.60;99.90
52941;DHT22;62001;53.366;6.636;2023-05-02T00:10:34;9.60;99.90
52941;DHT22;62001;53.366;6.636;2023-05-02T00:13:00;9.60;99.90
52941;DHT22;62001;53.366;6.636;2023-05-02T00:15:25;9.60;99.90
52941;DHT22;62001;53.366;6.636;2023-05-02T00:17:52;9.60;99.90
52941;DHT22;62001;53.366;6.636;2023-05-02T00:20:17;9.60;99.90
52941;DHT22;62001;53.366;6.636;2023-05-02T00:22:43;9.60;99.90
52941;DHT22;62001;53.366;6.636;2023-05-02T00:25:09;9.60;99.90
52941;DHT22;62001;53.366;6.636;2023-05-02T00:27:40;9.60;99.90
52941;DHT22;62001;53.366;6.636;2023-05-02T00:30:07;9.60;99.90
52941;DHT22;62001;53.366;6.636;2023-05-02T00:32:33;9.60;99.90
52941;DHT22;62001;53.366;6.636;2023-05-02T00:34:59;9.60;99.90
52941;DHT22;62001;53.366;6.636;2023-05-02T00:37:27;9.60;99.90
52941;DHT22;62001;53.366;6.636;2023-05-02T00:39:53;9.60;99.90
52941;DHT22;62001;53.366;6.636;2023-05-02T00:42:19;9.60;99.90
52941;DHT22;62001;53.366;6.636;2023-05-02T00:44:45;9.60;99.90
52941;DHT22;62001;53.366;6.636;2023-05-02T00:47:12;9.60;99.90
52941;DHT22;62001;53.366;6.636;2023-05-02T00:49:38;9.50;99.90
52941;DHT22;62001;53.366;6.636;2023-05-02T00:52:04;9.50;99.90
52941;DHT22;62001;53.366;6.636;2023-05-02T00:54:30;9.40;99.90
52941;DHT22;62001;53.366;6.636;2023-05-02T00:56:56;9.30;99.90
52941;DHT22;62001;53.366;6.636;2023-05-02T00:59:22;9.20;99.90
52941;DHT22;62001;53.366;6.636;2023-05-02T01:08:00;9.00;99.90
52941;DHT22;62001;53.366;6.636;2023-05-02T01:13:09;8.80;99.90
52941;DHT22;62001;53.366;6.636;2023-05-02T01:15:38;8.70;99.90
52941;DHT22;62001;53.366;6.636;2023-05-02T01:18:11;8.50;99.90
52941;DHT22;62001;53.366;6.636;2023-05-02T01:20:41;8.40;99.90
52941;DHT22;62001;53.366;6.636;2023-05-02T01:26:29;8.20;99.90
52941;DHT22;62001;53.366;6.636;2023-05-02T01:29:02;8.20;99.90
52941;DHT22;62001;53.366;6.636;2023-05-02T01:31:33;8.10;99.90
52941;DHT22;62001;53.366;6.636;2023-05-02T01:34:01;8.10;99.90
52941;DHT22;62001;53.366;6.636;2023-05-02T01:36:30;8.10;99.90
52941;DHT22;62001;53.366;6.636;2023-05-02T01:38:58;8.10;99.90
52941;DHT22;62001;53.366;6.636;2023-05-02T01:41:26;8.10;99.90
52941;DHT22;62001;53.366;6.636;2023-05-02T01:43:56;8.10;99.90
52941;DHT22;62001;53.366;6.636;2023-05-02T01:46:25;8.00;99.90
52941;DHT22;62001;53.366;6.636;2023-05-02T01:48:54;8.00;99.90
52941;DHT22;62001;53.366;6.636;2023-05-02T01:51:25;8.00;99.90
52941;DHT22;62001;53.366;6.636;2023-05-02T01:53:54;8.00;99.90
52941;DHT22;62001;53.366;6.636;2023-05-02T01:56:22;8.00;99.90
52941;DHT22;62001;53.366;6.636;2023-05-02T01:58:50;8.00;99.90
52941;DHT22;62001;53.366;6.636;2023-05-02T02:01:18;7.90;99.90
52941;DHT22;62001;53.366;6.636;2023-05-02T02:03:45;7.90;99.90
52941;DHT22;62001;53.366;6.636;2023-05-02T02:06:12;7.80;99.90
52941;DHT22;62001;53.366;6.636;2023-05-02T02:08:39;7.80;99.90
52941;DHT22;62001;53.366;6.636;2023-05-02T02:11:08;7.80;99.90
52941;DHT22;62001;53.366;6.636;2023-05-02T02:13:36;7.70;99.90
52941;DHT22;62001;53.366;6.636;2023-05-02T02:16:05;7.70;99.90
52941;DHT22;62001;53.366;6.636;2023-05-02T02:18:36;7.60;99.90
52941;DHT22;62001;53.366;6.636;2023-05-02T02:21:05;7.60;99.90
52941;DHT22;62001;53.366;6.636;2023-05-02T02:23:33;7.60;99.90
52941;DHT22;62001;53.366;6.636;2023-05-02T02:26:00;7.50;99.90
52941;DHT22;62001;53.366;6.636;2023-05-02T02:28:27;7.50;99.90
52941;DHT22;62001;53.366;6.636;2023-05-02T02:30:53;7.50;99.90
52941;DHT22;62001;53.366;6.636;2023-05-02T02:33:19;7.50;99.90
52941;DHT22;62001;53.366;6.636;2023-05-02T02:35:52;7.50;99.90
52941;DHT22;62001;53.366;6.636;2023-05-02T02:38:30;7.50;99.90
52941;DHT22;62001;53.366;6.636;2023-05-02T02:41:10;7.50;99.90
52941;DHT22;62001;53.366;6.636;2023-05-02T02:43:47;7.50;99.90
52941;DHT22;62001;53.366;6.636;2023-05-02T02:49:26;7.50;99.90
52941;DHT22;62001;53.366;6.636;2023-05-02T02:52:27;7.40;99.90
52941;DHT22;62001;53.366;6.636;2023-05-02T02:54:56;7.40;99.90
52941;DHT22;62001;53.366;6.636;2023-05-02T02:57:36;7.30;99.90
52941;DHT22;62001;53.366;6.636;2023-05-02T03:00:15;7.30;99.90
52941;DHT22;62001;53.366;6.636;2023-05-02T03:02:41;7.20;99.90
52941;DHT22;62001;53.366;6.636;2023-05-02T03:05:09;7.30;99.90
52941;DHT22;62001;53.366;6.636;2023-05-02T03:07:35;7.30;99.90
52941;DHT22;62001;53.366;6.636;2023-05-02T03:10:03;7.30;99.90
52941;DHT22;62001;53.366;6.636;2023-05-02T03:12:29;7.30;99.90
52941;DHT22;62001;53.366;6.636;2023-05-02T03:15:06;7.30;99.90
52941;DHT22;62001;53.366;6.636;2023-05-02T03:17:40;7.30;99.90
52941;DHT22;62001;53.366;6.636;2023-05-02T03:20:06;7.30;99.90
52941;DHT22;62001;53.366;6.636;2023-05-02T03:22:32;7.30;99.90
52941;DHT22;62001;53.366;6.636;2023-05-02T03:24:58;7.20;99.90
52941;DHT22;62001;53.366;6.636;2023-05-02T03:27:24;7.20;99.90
52941;DHT22;62001;53.366;6.636;2023-05-02T03:29:50;7.20;99.90
52941;DHT22;62001;53.366;6.636;2023-05-02T03:32:16;7.20;99.90
52941;DHT22;62001;53.366;6.636;2023-05-02T03:34:42;7.20;99.90
52941;DHT22;62001;53.366;6.636;2023-05-02T03:37:07;7.20;99.90
52941;DHT22;62001;53.366;6.636;2023-05-02T03:39:33;7.10;99.90
52941;DHT22;62001;53.366;6.636;2023-05-02T03:41:59;7.10;99.90
52941;DHT22;62001;53.366;6.636;2023-05-02T03:44:26;7.10;99.90
52941;DHT22;62001;53.366;6.636;2023-05-02T03:46:51;7.10;99.90
52941;DHT22;62001;53.366;6.636;2023-05-02T03:49:17;7.10;99.90
52941;DHT22;62001;53.366;6.636;2023-05-02T03:51:44;7.10;99.90
52941;DHT22;62001;53.366;6.636;2023-05-02T03:54:10;7.10;99.90
52941;DHT22;62001;53.366;6.636;2023-05-02T03:56:36;7.10;99.90
52941;DHT22;62001;53.366;6.636;2023-05-02T03:59:01;7.20;99.90
52941;DHT22;62001;53.366;6.636;2023-05-02T04:01:28;7.10;99.90
52941;DHT22;62001;53.366;6.636;2023-05-02T04:03:54;7.10;99.90
52941;DHT22;62001;53.366;6.636;2023-05-02T04:06:21;7.10;99.90
52941;DHT22;62001;53.366;6.636;2023-05-02T04:08:47;7.10;99.90
52941;DHT22;62001;53.366;6.636;2023-05-02T04:11:13;7.10;99.90
52941;DHT22;62001;53.366;6.636;2023-05-02T04:13:39;7.10;99.90
52941;DHT22;62001;53.366;6.636;2023-05-02T04:16:05;7.10;99.90
52941;DHT22;62001;53.366;6.636;2023-05-02T04:18:30;7.10;99.90
52941;DHT22;62001;53.366;6.636;2023-05-02T04:20:56;7.10;99.90
52941;DHT22;62001;53.366;6.636;2023-05-02T04:23:22;7.10;99.90
52941;DHT22;62001;53.366;6.636;2023-05-02T04:25:54;7.10;99.90
52941;DHT22;62001;53.366;6.636;2023-05-02T04:28:21;7.00;99.90
52941;DHT22;62001;53.366;6.636;2023-05-02T04:30:48;7.00;99.90
52941;DHT22;62001;53.366;6.636;2023-05-02T04:33:14;6.90;99.90
52941;DHT22;62001;53.366;6.636;2023-05-02T04:35:40;6.90;99.90
52941;DHT22;62001;53.366;6.636;2023-05-02T04:38:06;6.90;99.90
52941;DHT22;62001;53.366;6.636;2023-05-02T04:40:33;6.90;99.90
52941;DHT22;62001;53.366;6.636;2023-05-02T04:42:59;6.90;99.90
52941;DHT22;62001;53.366;6.636;2023-05-02T04:45:25;6.90;99.90
52941;DHT22;62001;53.366;6.636;2023-05-02T04:47:51;6.90;99.90
52941;DHT22;62001;53.366;6.636;2023-05-02T04:50:16;6.80;99.90
52941;DHT22;62001;53.366;6.636;2023-05-02T04:52:42;6.80;99.90
52941;DHT22;62001;53.366;6.636;2023-05-02T04:55:08;6.70;99.90
52941;DHT22;62001;53.366;6.636;2023-05-02T04:57:34;6.70;99.90
52941;DHT22;62001;53.366;6.636;2023-05-02T05:00:00;6.70;99.90
52941;DHT22;62001;53.366;6.636;2023-05-02T05:02:26;6.80;99.90
52941;DHT22;62001;53.366;6.636;2023-05-02T05:04:52;6.70;99.90
52941;DHT22;62001;53.366;6.636;2023-05-02T05:07:18;6.80;99.90
52941;DHT22;62001;53.366;6.636;2023-05-02T05:09:43;6.70;99.90
52941;DHT22;62001;53.366;6.636;2023-05-02T05:12:09;6.70;99.90
52941;DHT22;62001;53.366;6.636;2023-05-02T05:14:35;6.70;99.90
52941;DHT22;62001;53.366;6.636;2023-05-02T05:17:01;6.70;99.90
52941;DHT22;62001;53.366;6.636;2023-05-02T05:19:27;6.70;99.90
52941;DHT22;62001;53.366;6.636;2023-05-02T05:21:53;6.80;99.90
52941;DHT22;62001;53.366;6.636;2023-05-02T05:24:19;6.90;99.90
52941;DHT22;62001;53.366;6.636;2023-05-02T05:26:44;6.90;99.90
52941;DHT22;62001;53.366;6.636;2023-05-02T05:29:10;7.00;99.90
52941;DHT22;62001;53.366;6.636;2023-05-02T05:31:36;7.00;99.90
52941;DHT22;62001;53.366;6.636;2023-05-02T05:34:02;7.10;99.90
52941;DHT22;62001;53.366;6.636;2023-05-02T05:36:29;7.10;99.90
52941;DHT22;62001;53.366;6.636;2023-05-02T05:38:56;7.20;99.90
52941;DHT22;62001;53.366;6.636;2023-05-02T05:41:21;7.20;99.90
52941;DHT22;62001;53.366;6.636;2023-05-02T05:43:49;7.30;99.90
52941;DHT22;62001;53.366;6.636;2023-05-02T05:46:14;7.30;99.90
52941;DHT22;62001;53.366;6.636;2023-05-02T05:48:40;7.40;99.90
52941;DHT22;62001;53.366;6.636;2023-05-02T05:51:06;7.40;99.90
52941;DHT22;62001;53.366;6.636;2023-05-02T05:53:32;7.40;99.90
52941;DHT22;62001;53.366;6.636;2023-05-02T05:55:58;7.50;99.90
52941;DHT22;62001;53.366;6.636;2023-05-02T05:58:24;7.50;99.90
52941;DHT22;62001;53.366;6.636;2023-05-02T06:00:50;7.50;99.90
52941;DHT22;62001;53.366;6.636;2023-05-02T06:03:16;7.50;99.90
52941;DHT22;62001;53.366;6.636;2023-05-02T06:05:42;7.50;99.90
52941;DHT22;62001;53.366;6.636;2023-05-02T06:08:08;7.50;99.90
52941;DHT22;62001;53.366;6.636;2023-05-02T06:10:34;7.50;99.90
52941;DHT22;62001;53.366;6.636;2023-05-02T06:13:00;7.60;99.90
52941;DHT22;62001;53.366;6.636;2023-05-02T06:15:26;7.60;99.90
52941;DHT22;62001;53.366;6.636;2023-05-02T06:17:51;7.70;99.90
52941;DHT22;62001;53.366;6.636;2023-05-02T06:20:17;7.80;99.90
52941;DHT22;62001;53.366;6.636;2023-05-02T06:22:43;7.90;99.90
52941;DHT22;62001;53.366;6.636;2023-05-02T06:25:09;8.00;99.90
52941;DHT22;62001;53.366;6.636;2023-05-02T06:27:35;8.10;99.90
52941;DHT22;62001;53.366;6.636;2023-05-02T06:30:01;8.10;99.90
52941;DHT22;62001;53.366;6.636;2023-05-02T06:32:30;8.10;99.90
52941;DHT22;62001;53.366;6.636;2023-05-02T06:34:59;8.10;99.90
52941;DHT22;62001;53.366;6.636;2023-05-02T06:37:25;8.00;99.90
52941;DHT22;62001;53.366;6.636;2023-05-02T06:39:51;8.00;99.90
52941;DHT22;62001;53.366;6.636;2023-05-02T06:42:16;8.00;99.90
52941;DHT22;62001;53.366;6.636;2023-05-02T06:44:42;8.10;99.90
52941;DHT22;62001;53.366;6.636;2023-05-02T06:47:08;8.00;99.90
52941;DHT22;62001;53.366;6.636;2023-05-02T06:49:34;8.10;99.90
52941;DHT22;62001;53.366;6.636;2023-05-02T06:52:00;8.10;99.90
52941;DHT22;62001;53.366;6.636;2023-05-02T06:54:25;8.20;99.90
52941;DHT22;62001;53.366;6.636;2023-05-02T06:56:51;8.30;99.90
52941;DHT22;62001;53.366;6.636;2023-05-02T06:59:17;8.30;99.90
52941;DHT22;62001;53.366;6.636;2023-05-02T07:01:43;8.40;99.90
52941;DHT22;62001;53.366;6.636;2023-05-02T07:04:09;8.40;99.90
52941;DHT22;62001;53.366;6.636;2023-05-02T07:06:35;8.30;99.90
52941;DHT22;62001;53.366;6.636;2023-05-02T07:09:01;8.30;99.90
52941;DHT22;62001;53.366;6.636;2023-05-02T07:11:26;8.20;99.90
52941;DHT22;62001;53.366;6.636;2023-05-02T07:13:53;8.10;99.90
52941;DHT22;62001;53.366;6.636;2023-05-02T07:16:19;8.20;99.90
52941;DHT22;62001;53.366;6.636;2023-05-02T07:18:45;8.50;99.90
52941;DHT22;62001;53.366;6.636;2023-05-02T07:21:11;9.40;99.90
52941;DHT22;62001;53.366;6.636;2023-05-02T07:23:37;10.00;99.90
52941;DHT22;62001;53.366;6.636;2023-05-02T07:26:03;10.00;99.90
52941;DHT22;62001;53.366;6.636;2023-05-02T07:28:30;9.90;99.90
52941;DHT22;62001;53.366;6.636;2023-05-02T07:30:56;10.00;99.90
52941;DHT22;62001;53.366;6.636;2023-05-02T07:33:22;10.20;99.90
52941;DHT22;62001;53.366;6.636;2023-05-02T07:35:49;10.50;99.90
52941;DHT22;62001;53.366;6.636;2023-05-02T07:38:15;10.50;99.90
52941;DHT22;62001;53.366;6.636;2023-05-02T07:40:44;10.30;99.90
52941;DHT22;62001;53.366;6.636;2023-05-02T07:43:11;10.10;99.90
52941;DHT22;62001;53.366;6.636;2023-05-02T07:45:37;9.90;99.90
52941;DHT22;62001;53.366;6.636;2023-05-02T07:48:03;9.80;99.90
52941;DHT22;62001;53.366;6.636;2023-05-02T07:50:29;9.70;99.90
52941;DHT22;62001;53.366;6.636;2023-05-02T07:52:55;9.60;99.90
52941;DHT22;62001;53.366;6.636;2023-05-02T07:55:21;9.70;99.90
52941;DHT22;62001;53.366;6.636;2023-05-02T07:57:47;9.80;99.90
52941;DHT22;62001;53.366;6.636;2023-05-02T08:00:13;9.80;99.90
52941;DHT22;62001;53.366;6.636;2023-05-02T08:02:42;9.80;99.90
52941;DHT22;62001;53.366;6.636;2023-05-02T08:05:08;9.90;99.90
52941;DHT22;62001;53.366;6.636;2023-05-02T08:07:34;9.90;99.90
52941;DHT22;62001;53.366;6.636;2023-05-02T08:10:00;10.00;99.90
52941;DHT22;62001;53.366;6.636;2023-05-02T08:12:26;9.90;99.90
52941;DHT22;62001;53.366;6.636;2023-05-02T08:14:53;9.80;99.90
52941;DHT22;62001;53.366;6.636;2023-05-02T08:17:19;9.90;99.90
52941;DHT22;62001;53.366;6.636;2023-05-02T08:19:45;9.90;99.90
52941;DHT22;62001;53.366;6.636;2023-05-02T08:22:11;9.90;99.90
52941;DHT22;62001;53.366;6.636;2023-05-02T08:24:37;9.80;99.90
52941;DHT22;62001;53.366;6.636;2023-05-02T08:27:03;9.60;99.90
52941;DHT22;62001;53.366;6.636;2023-05-02T08:29:31;9.90;99.90
52941;DHT22;62001;53.366;6.636;2023-05-02T08:31:57;11.30;99.90
52941;DHT22;62001;53.366;6.636;2023-05-02T08:34:23;12.50;99.90
52941;DHT22;62001;53.366;6.636;2023-05-02T08:36:49;13.40;99.90
52941;DHT22;62001;53.366;6.636;2023-05-02T08:39:15;13.30;99.90
52941;DHT22;62001;53.366;6.636;2023-05-02T08:41:41;13.00;99.90
52941;DHT22;62001;53.366;6.636;2023-05-02T08:44:07;12.80;99.90
52941;DHT22;62001;53.366;6.636;2023-05-02T08:46:34;12.70;99.90
52941;DHT22;62001;53.366;6.636;2023-05-02T08:49:01;12.70;99.90
52941;DHT22;62001;53.366;6.636;2023-05-02T08:51:29;13.20;99.90
52941;DHT22;62001;53.366;6.636;2023-05-02T08:53:57;13.40;98.90
52941;DHT22;62001;53.366;6.636;2023-05-02T08:56:23;13.20;97.50
52941;DHT22;62001;53.366;6.636;2023-05-02T08:58:49;13.20;98.30
52941;DHT22;62001;53.366;6.636;2023-05-02T09:01:17;13.30;98.80
52941;DHT22;62001;53.366;6.636;2023-05-02T09:03:45;12.80;97.90
52941;DHT22;62001;53.366;6.636;2023-05-02T09:08:41;12.20;99.90
52941;DHT22;62001;53.366;6.636;2023-05-02T09:11:11;11.90;99.90
52941;DHT22;62001;53.366;6.636;2023-05-02T09:13:39;11.80;99.90
52941;DHT22;62001;53.366;6.636;2023-05-02T09:16:11;11.80;99.90
52941;DHT22;62001;53.366;6.636;2023-05-02T09:21:09;11.50;99.90
52941;DHT22;62001;53.366;6.636;2023-05-02T09:26:22;11.30;99.90
52941;DHT22;62001;53.366;6.636;2023-05-02T09:28:52;11.20;99.90
52941;DHT22;62001;53.366;6.636;2023-05-02T09:31:20;10.70;99.90
52941;DHT22;62001;53.366;6.636;2023-05-02T09:33:47;10.60;99.90
52941;DHT22;62001;53.366;6.636;2023-05-02T09:36:15;10.60;99.90
52941;DHT22;62001;53.366;6.636;2023-05-02T09:38:42;10.40;99.90
52941;DHT22;62001;53.366;6.636;2023-05-02T09:41:08;10.50;99.90
52941;DHT22;62001;53.366;6.636;2023-05-02T09:43:34;10.80;99.90
52941;DHT22;62001;53.366;6.636;2023-05-02T09:46:02;11.00;99.90
52941;DHT22;62001;53.366;6.636;2023-05-02T09:48:30;11.30;99.90
52941;DHT22;62001;53.366;6.636;2023-05-02T09:50:56;11.50;99.90
52941;DHT22;62001;53.366;6.636;2023-05-02T09:53:27;11.50;99.90
52941;DHT22;62001;53.366;6.636;2023-05-02T09:56:03;11.70;99.90
52941;DHT22;62001;53.366;6.636;2023-05-02T09:58:29;11.90;99.90
52941;DHT22;62001;53.366;6.636;2023-05-02T10:00:56;12.10;99.90
52941;DHT22;62001;53.366;6.636;2023-05-02T10:03:23;12.20;99.90
52941;DHT22;62001;53.366;6.636;2023-05-02T10:05:49;12.90;99.90
52941;DHT22;62001;53.366;6.636;2023-05-02T10:08:17;13.20;99.90
52941;DHT22;62001;53.366;6.636;2023-05-02T10:10:49;12.90;99.90
52941;DHT22;62001;53.366;6.636;2023-05-02T10:13:19;12.60;99.90
52941;DHT22;62001;53.366;6.636;2023-05-02T10:15:48;12.80;99.90
52941;DHT22;62001;53.366;6.636;2023-05-02T10:18:25;13.20;99.90
52941;DHT22;62001;53.366;6.636;2023-05-02T10:21:00;13.20;99.90
52941;DHT22;62001;53.366;6.636;2023-05-02T10:23:30;13.30;99.90
52941;DHT22;62001;53.366;6.636;2023-05-02T10:25:58;13.00;99.90
52941;DHT22;62001;53.366;6.636;2023-05-02T10:28:25;12.80;99.90
52941;DHT22;62001;53.366;6.636;2023-05-02T10:30:52;12.50;99.90
52941;DHT22;62001;53.366;6.636;2023-05-02T10:33:20;12.30;99.90
52941;DHT22;62001;53.366;6.636;2023-05-02T10:35:46;12.20;99.90
52941;DHT22;62001;53.366;6.636;2023-05-02T10:38:20;12.00;99.90
52941;DHT22;62001;53.366;6.636;2023-05-02T10:40:58;12.40;99.90
52941;DHT22;62001;53.366;6.636;2023-05-02T10:43:31;12.70;99.90
52941;DHT22;62001;53.366;6.636;2023-05-02T10:45:58;12.70;99.90
52941;DHT22;62001;53.366;6.636;2023-05-02T10:48:25;12.70;99.90
52941;DHT22;62001;53.366;6.636;2023-05-02T10:56:19;12.80;99.90
52941;DHT22;62001;53.366;6.636;2023-05-02T10:58:52;12.80;99.90
52941;DHT22;62001;53.366;6.636;2023-05-02T11:04:08;12.60;99.90
52941;DHT22;62001;53.366;6.636;2023-05-02T11:11:54;12.40;99.90
52941;DHT22;62001;53.366;6.636;2023-05-02T11:24:47;12.10;99.90
52941;DHT22;62001;53.366;6.636;2023-05-02T11:29:59;12.70;99.90
52941;DHT22;62001;53.366;6.636;2023-05-02T11:35:24;12.90;99.60
52941;DHT22;62001;53.366;6.636;2023-05-02T11:38:11;12.90;99.10
52941;DHT22;62001;53.366;6.636;2023-05-02T11:40:37;12.90;97.70
52941;DHT22;62001;53.366;6.636;2023-05-02T11:43:16;12.80;97.90
52941;DHT22;62001;53.366;6.636;2023-05-02T11:45:42;13.00;98.30
52941;DHT22;62001;53.366;6.636;2023-05-02T11:48:10;12.90;98.00
52941;DHT22;62001;53.366;6.636;2023-05-02T11:53:14;12.50;99.00
52941;DHT22;62001;53.366;6.636;2023-05-02T11:55:44;12.50;99.40
52941;DHT22;62001;53.366;6.636;2023-05-02T11:58:15;12.60;99.10
52941;DHT22;62001;53.366;6.636;2023-05-02T12:00:42;12.30;98.20
52941;DHT22;62001;53.366;6.636;2023-05-02T12:03:21;12.10;99.90
52941;DHT22;62001;53.366;6.636;2023-05-02T12:05:47;12.10;99.90
52941;DHT22;62001;53.366;6.636;2023-05-02T12:08:39;11.90;99.90
52941;DHT22;62001;53.366;6.636;2023-05-02T12:11:06;11.90;99.90
52941;DHT22;62001;53.366;6.636;2023-05-02T12:13:32;11.80;99.90
52941;DHT22;62001;53.366;6.636;2023-05-02T12:15:58;11.70;99.90
52941;DHT22;62001;53.366;6.636;2023-05-02T12:18:25;11.80;99.90
52941;DHT22;62001;53.366;6.636;2023-05-02T12:20:55;11.70;99.90
52941;DHT22;62001;53.366;6.636;2023-05-02T12:23:23;11.70;99.90
52941;DHT22;62001;53.366;6.636;2023-05-02T12:25:51;11.60;99.90
52941;DHT22;62001;53.366;6.636;2023-05-02T12:28:17;11.90;99.90
52941;DHT22;62001;53.366;6.636;2023-05-02T12:30:46;12.30;99.90
52941;DHT22;62001;53.366;6.636;2023-05-02T12:33:12;12.40;99.90
52941;DHT22;62001;53.366;6.636;2023-05-02T12:35:38;12.40;99.90
52941;DHT22;62001;53.366;6.636;2023-05-02T12:38:22;12.60;99.90
52941;DHT22;62001;53.366;6.636;2023-05-02T12:40:52;12.70;99.90
52941;DHT22;62001;53.366;6.636;2023-05-02T12:43:19;12.50;99.90
52941;DHT22;62001;53.366;6.636;2023-05-02T12:45:46;12.30;99.90
52941;DHT22;62001;53.366;6.636;2023-05-02T12:48:26;12.20;99.90
52941;DHT22;62001;53.366;6.636;2023-05-02T12:50:53;12.30;99.90
52941;DHT22;62001;53.366;6.636;2023-05-02T12:53:43;12.30;99.90
52941;DHT22;62001;53.366;6.636;2023-05-02T12:56:10;12.70;99.90
52941;DHT22;62001;53.366;6.636;2023-05-02T12:58:41;12.90;99.90
52941;DHT22;62001;53.366;6.636;2023-05-02T13:01:08;12.90;99.90
52941;DHT22;62001;53.366;6.636;2023-05-02T13:03:34;12.80;99.90
52941;DHT22;62001;53.366;6.636;2023-05-02T13:06:00;12.70;99.90
52941;DHT22;62001;53.366;6.636;2023-05-02T13:08:26;12.60;99.90
52941;DHT22;62001;53.366;6.636;2023-05-02T13:10:52;12.70;99.90
52941;DHT22;62001;53.366;6.636;2023-05-02T13:13:18;12.70;99.90
52941;DHT22;62001;53.366;6.636;2023-05-02T13:15:44;12.60;99.90
52941;DHT22;62001;53.366;6.636;2023-05-02T13:18:10;12.50;99.90
52941;DHT22;62001;53.366;6.636;2023-05-02T13:20:36;12.50;99.90
52941;DHT22;62001;53.366;6.636;2023-05-02T13:23:02;12.90;99.90
52941;DHT22;62001;53.366;6.636;2023-05-02T13:25:28;13.20;99.90
52941;DHT22;62001;53.366;6.636;2023-05-02T13:27:54;13.10;99.90
52941;DHT22;62001;53.366;6.636;2023-05-02T13:30:19;13.00;99.90
52941;DHT22;62001;53.366;6.636;2023-05-02T13:32:45;12.60;99.90
52941;DHT22;62001;53.366;6.636;2023-05-02T13:35:11;12.20;99.90
52941;DHT22;62001;53.366;6.636;2023-05-02T13:37:39;11.80;99.90
52941;DHT22;62001;53.366;6.636;2023-05-02T13:40:06;11.60;99.90
52941;DHT22;62001;53.366;6.636;2023-05-02T13:42:34;11.40;99.90
52941;DHT22;62001;53.366;6.636;2023-05-02T13:45:01;11.30;99.90
52941;DHT22;62001;53.366;6.636;2023-05-02T13:47:29;11.40;99.90
52941;DHT22;62001;53.366;6.636;2023-05-02T13:49:55;11.50;99.90
52941;DHT22;62001;53.366;6.636;2023-05-02T13:52:21;11.50;99.90
52941;DHT22;62001;53.366;6.636;2023-05-02T13:54:47;11.50;99.90
52941;DHT22;62001;53.366;6.636;2023-05-02T13:57:13;11.50;99.90
52941;DHT22;62001;53.366;6.636;2023-05-02T13:59:39;11.60;99.90
52941;DHT22;62001;53.366;6.636;2023-05-02T14:02:06;11.50;99.90
52941;DHT22;62001;53.366;6.636;2023-05-02T14:04:31;11.40;99.90
52941;DHT22;62001;53.366;6.636;2023-05-02T14:06:57;11.20;99.90
52941;DHT22;62001;53.366;6.636;2023-05-02T14:09:23;11.10;99.90
52941;DHT22;62001;53.366;6.636;2023-05-02T14:11:49;11.10;99.90
52941;DHT22;62001;53.366;6.636;2023-05-02T14:14:15;11.00;99.90
52941;DHT22;62001;53.366;6.636;2023-05-02T14:16:41;11.00;99.90
52941;DHT22;62001;53.366;6.636;2023-05-02T14:19:07;10.90;99.90
52941;DHT22;62001;53.366;6.636;2023-05-02T14:21:33;10.70;99.90
52941;DHT22;62001;53.366;6.636;2023-05-02T14:23:59;10.60;99.90
52941;DHT22;62001;53.366;6.636;2023-05-02T14:26:25;10.60;99.90
52941;DHT22;62001;53.366;6.636;2023-05-02T14:28:51;10.70;99.90
52941;DHT22;62001;53.366;6.636;2023-05-02T14:31:17;10.80;99.90
52941;DHT22;62001;53.366;6.636;2023-05-02T14:33:43;11.00;99.90
52941;DHT22;62001;53.366;6.636;2023-05-02T14:36:09;11.20;99.90
52941;DHT22;62001;53.366;6.636;2023-05-02T14:38:35;11.30;99.90
52941;DHT22;62001;53.366;6.636;2023-05-02T14:41:01;11.40;99.90
52941;DHT22;62001;53.366;6.636;2023-05-02T14:43:27;11.60;99.90
52941;DHT22;62001;53.366;6.636;2023-05-02T14:45:54;11.90;99.90
52941;DHT22;62001;53.366;6.636;2023-05-02T14:48:21;12.30;99.90
52941;DHT22;62001;53.366;6.636;2023-05-02T14:50:47;12.20;99.90
52941;DHT22;62001;53.366;6.636;2023-05-02T14:53:13;12.00;99.90
52941;DHT22;62001;53.366;6.636;2023-05-02T14:55:39;11.90;99.90
52941;DHT22;62001;53.366;6.636;2023-05-02T14:58:06;11.70;99.90
52941;DHT22;62001;53.366;6.636;2023-05-02T15:00:37;11.60;99.90
52941;DHT22;62001;53.366;6.636;2023-05-02T15:03:06;11.40;99.90
52941;DHT22;62001;53.366;6.636;2023-05-02T15:05:32;11.40;99.90
52941;DHT22;62001;53.366;6.636;2023-05-02T15:07:58;11.30;99.90
52941;DHT22;62001;53.366;6.636;2023-05-02T15:10:24;11.10;99.90
52941;DHT22;62001;53.366;6.636;2023-05-02T15:12:50;11.20;99.90
52941;DHT22;62001;53.366;6.636;2023-05-02T15:15:16;11.40;99.90
52941;DHT22;62001;53.366;6.636;2023-05-02T15:17:43;11.50;99.90
52941;DHT22;62001;53.366;6.636;2023-05-02T15:20:09;11.60;99.90
52941;DHT22;62001;53.366;6.636;2023-05-02T15:22:36;11.80;99.90
52941;DHT22;62001;53.366;6.636;2023-05-02T15:25:01;11.70;99.90
52941;DHT22;62001;53.366;6.636;2023-05-02T15:27:27;11.50;99.90
52941;DHT22;62001;53.366;6.636;2023-05-02T15:29:53;11.30;99.90
52941;DHT22;62001;53.366;6.636;2023-05-02T15:32:19;11.10;99.90
52941;DHT22;62001;53.366;6.636;2023-05-02T15:34:46;11.00;99.90
52941;DHT22;62001;53.366;6.636;2023-05-02T15:37:12;11.10;99.90
52941;DHT22;62001;53.366;6.636;2023-05-02T15:39:38;11.10;99.90
52941;DHT22;62001;53.366;6.636;2023-05-02T15:42:04;11.10;99.90
52941;DHT22;62001;53.366;6.636;2023-05-02T15:44:34;11.00;99.90
52941;DHT22;62001;53.366;6.636;2023-05-02T15:47:03;10.90;99.90
52941;DHT22;62001;53.366;6.636;2023-05-02T15:49:29;10.90;99.90
52941;DHT22;62001;53.366;6.636;2023-05-02T15:52:01;11.00;99.90
52941;DHT22;62001;53.366;6.636;2023-05-02T15:54:27;11.00;99.90
52941;DHT22;62001;53.366;6.636;2023-05-02T15:56:53;10.70;99.90
52941;DHT22;62001;53.366;6.636;2023-05-02T15:59:22;10.50;99.90
52941;DHT22;62001;53.366;6.636;2023-05-02T16:01:47;10.30;99.90
52941;DHT22;62001;53.366;6.636;2023-05-02T16:04:13;10.10;99.90
52941;DHT22;62001;53.366;6.636;2023-05-02T16:06:42;10.10;99.90
52941;DHT22;62001;53.366;6.636;2023-05-02T16:09:09;10.10;99.90
52941;DHT22;62001;53.366;6.636;2023-05-02T16:11:36;10.00;99.90
52941;DHT22;62001;53.366;6.636;2023-05-02T16:14:02;10.00;99.90
52941;DHT22;62001;53.366;6.636;2023-05-02T16:16:30;10.20;99.90
52941;DHT22;62001;53.366;6.636;2023-05-02T16:19:00;10.30;99.90
52941;DHT22;62001;53.366;6.636;2023-05-02T16:21:27;10.20;99.90
52941;DHT22;62001;53.366;6.636;2023-05-02T16:23:53;10.10;99.90
52941;DHT22;62001;53.366;6.636;2023-05-02T16:26:19;10.10;99.90
52941;DHT22;62001;53.366;6.636;2023-05-02T16:28:45;10.10;99.90
52941;DHT22;62001;53.366;6.636;2023-05-02T16:31:14;10.30;99.90
52941;DHT22;62001;53.366;6.636;2023-05-02T16:33:40;10.50;99.90